Time;durP1;ratioP1;P1;durP2;ratioP2;P2;SDS_P1;SDS_P2;PMS_P1;PMS_P2;Temp;Humidity;BMP_temperature;BMP_pressure;BME280_temperature;BME280_humidity;BME280_pressure;Samples;Min_cycle;Max_cycle;Signal;HPM_P1;HPM_P2
2022/04/12 00:01:41;;;;;;;8.63;3.88;;;9.30;99.90;;;;;;5053025;28;20242;-61
2022/04/12 00:04:09;;;;;;;4.90;3.85;;;9.30;99.90;;;;;;5052257;28;20251;-61
2022/04/12 00:06:37;;;;;;;6.05;4.20;;;9.30;99.90;;;;;;5052802;28;20195;-61
2022/04/12 00:09:05;;;;;;;4.53;3.95;;;9.30;99.90;;;;;;5052486;28;20240;-61
2022/04/12 00:11:33;;;;;;;3.40;3.20;;;9.30;99.90;;;;;;5052561;28;20257;-61
2022/04/12 00:14:01;;;;;;;4.00;3.42;;;9.30;99.90;;;;;;5051885;28;20642;-61
2022/04/12 00:16:30;;;;;;;4.40;4.00;;;9.40;99.90;;;;;;5052520;28;20208;-61
2022/04/12 00:19:03;;;;;;;4.50;4.10;;;9.40;99.90;;;;;;5052439;28;20192;-61
2022/04/12 00:21:34;;;;;;;3.95;3.55;;;9.40;99.90;;;;;;5051903;28;20216;-61
2022/04/12 00:24:05;;;;;;;3.88;3.50;;;9.30;99.90;;;;;;5051581;28;20633;-61
2022/04/12 00:26:34;;;;;;;4.65;3.78;;;9.30;99.90;;;;;;5052435;28;20283;-61
2022/04/12 00:29:01;;;;;;;4.40;4.00;;;9.20;99.90;;;;;;5052205;28;20216;-61
2022/04/12 00:31:31;;;;;;;4.47;4.05;;;9.10;99.90;;;;;;5052272;28;20196;-61
2022/04/12 00:33:59;;;;;;;4.30;3.90;;;9.10;99.90;;;;;;5051510;28;20800;-60
2022/04/12 00:36:28;;;;;;;3.65;3.35;;;9.20;99.90;;;;;;5052026;28;20639;-61
2022/04/12 00:38:56;;;;;;;7.00;4.18;;;9.20;99.90;;;;;;5052337;28;20798;-60
2022/04/12 00:41:23;;;;;;;4.50;3.90;;;9.10;99.90;;;;;;5052202;28;20234;-60
2022/04/12 00:43:51;;;;;;;4.28;3.80;;;9.10;99.90;;;;;;5051344;28;20193;-60
2022/04/12 00:46:19;;;;;;;6.30;4.50;;;9.10;99.90;;;;;;5052036;28;20223;-60
2022/04/12 00:48:49;;;;;;;3.70;3.40;;;9.10;99.90;;;;;;5051621;28;20216;-61
2022/04/12 00:51:17;;;;;;;6.63;4.15;;;9.10;99.90;;;;;;5051932;28;20334;-61
2022/04/12 00:53:45;;;;;;;5.93;3.42;;;9.20;99.90;;;;;;5050991;28;20253;-61
2022/04/12 00:56:14;;;;;;;4.50;4.10;;;9.20;99.90;;;;;;5051904;28;20210;-60
2022/04/12 00:58:46;;;;;;;4.00;3.65;;;9.20;99.90;;;;;;5051472;28;20655;-61
2022/04/12 01:01:14;;;;;;;3.47;3.17;;;9.10;99.90;;;;;;5051728;28;20693;-61
2022/04/12 01:03:42;;;;;;;5.43;4.93;;;9.10;99.90;;;;;;5050880;28;20238;-61
2022/04/12 01:06:11;;;;;;;6.43;3.85;;;9.10;99.90;;;;;;5051601;28;20728;-61
2022/04/12 01:08:39;;;;;;;4.55;4.15;;;9.00;99.90;;;;;;5051329;28;20548;-61
2022/04/12 01:11:07;;;;;;;6.03;4.30;;;9.00;99.90;;;;;;5051604;28;20235;-61
2022/04/12 01:13:36;;;;;;;4.28;3.60;;;9.00;99.90;;;;;;5050957;28;20235;-60
2022/04/12 01:16:06;;;;;;;4.18;3.78;;;9.00;99.90;;;;;;5051399;28;20211;-60
2022/04/12 01:18:35;;;;;;;3.97;3.67;;;9.10;99.90;;;;;;5051758;28;20568;-61
2022/04/12 01:21:03;;;;;;;4.63;4.22;;;9.00;99.90;;;;;;5051485;28;20211;-60
2022/04/12 01:23:37;;;;;;;4.43;3.60;;;9.10;99.90;;;;;;5050803;28;20681;-61
2022/04/12 01:26:07;;;;;;;4.30;3.90;;;9.10;99.90;;;;;;5051345;28;20199;-61
2022/04/12 01:28:35;;;;;;;4.10;3.70;;;9.10;99.90;;;;;;5050821;28;20295;-60
2022/04/12 01:31:03;;;;;;;4.53;4.10;;;9.10;99.90;;;;;;5051346;28;20631;-60
2022/04/12 01:33:31;;;;;;;5.07;3.92;;;9.10;99.90;;;;;;5050404;28;20200;-61
2022/04/12 01:35:59;;;;;;;5.50;4.95;;;9.10;99.90;;;;;;5051167;28;20298;-61
2022/04/12 01:38:28;;;;;;;5.88;3.45;;;9.00;99.90;;;;;;5050862;28;20654;-61
2022/04/12 01:40:56;;;;;;;3.80;3.40;;;9.00;99.90;;;;;;5050892;28;20191;-61
2022/04/12 01:43:25;;;;;;;4.43;3.80;;;9.00;99.90;;;;;;5030351;28;20231;-61
2022/04/12 01:45:52;;;;;;;5.22;3.58;;;9.20;99.90;;;;;;5029398;28;20703;-60
2022/04/12 01:48:21;;;;;;;4.70;3.33;;;9.40;99.90;;;;;;5030921;28;20196;-61
2022/04/12 01:50:49;;;;;;;4.53;3.50;;;9.40;99.90;;;;;;5031175;28;20773;-60
2022/04/12 01:53:17;;;;;;;3.75;3.45;;;9.30;99.90;;;;;;5030290;28;20681;-60
2022/04/12 01:55:45;;;;;;;5.65;4.68;;;9.20;99.90;;;;;;5030570;28;20236;-62
2022/04/12 01:58:13;;;;;;;5.15;4.30;;;9.10;99.90;;;;;;5033547;28;20261;-62
2022/04/12 02:00:43;;;;;;;4.05;3.75;;;8.90;99.90;;;;;;5050839;28;20214;-61
2022/04/12 02:03:11;;;;;;;4.43;3.95;;;8.90;99.90;;;;;;5051333;28;20203;-61
2022/04/12 02:05:40;;;;;;;4.55;4.03;;;8.80;99.90;;;;;;5050747;28;20277;-61
2022/04/12 02:08:08;;;;;;;4.32;3.92;;;8.80;99.90;;;;;;5050593;28;20259;-61
2022/04/12 02:10:36;;;;;;;5.68;4.20;;;8.80;99.90;;;;;;5050767;28;20208;-61
2022/04/12 02:13:04;;;;;;;6.05;4.25;;;8.80;99.90;;;;;;5049987;28;20265;-60
2022/04/12 02:15:33;;;;;;;4.15;3.75;;;8.80;99.90;;;;;;5050278;28;20285;-61
2022/04/12 02:18:03;;;;;;;5.25;4.10;;;8.80;99.90;;;;;;5050751;28;20206;-61
2022/04/12 02:20:31;;;;;;;4.35;3.92;;;8.90;99.90;;;;;;5050673;28;20223;-62
2022/04/12 02:22:58;;;;;;;4.65;4.00;;;8.90;99.90;;;;;;5050119;28;20691;-61
2022/04/12 02:25:26;;;;;;;5.30;4.45;;;8.90;99.90;;;;;;5050645;28;20216;-61
2022/04/12 02:27:54;;;;;;;5.38;4.38;;;9.00;99.90;;;;;;5050574;28;20265;-61
2022/04/12 02:30:22;;;;;;;4.82;3.90;;;9.00;99.90;;;;;;5050511;28;20627;-61
2022/04/12 02:32:50;;;;;;;4.95;4.45;;;8.90;99.90;;;;;;5049879;28;20212;-61
2022/04/12 02:35:19;;;;;;;5.18;4.10;;;8.80;99.90;;;;;;5050411;28;20634;-61
2022/04/12 02:37:47;;;;;;;4.60;4.00;;;8.80;99.90;;;;;;5050381;28;20296;-61
2022/04/12 02:40:15;;;;;;;6.75;4.53;;;8.70;99.90;;;;;;5050173;28;20851;-61
2022/04/12 02:42:42;;;;;;;4.88;4.38;;;8.70;99.90;;;;;;5049863;28;20230;-61
2022/04/12 02:45:10;;;;;;;4.82;4.43;;;8.60;99.90;;;;;;5051137;28;20247;-61
2022/04/12 02:47:38;;;;;;;5.15;4.40;;;8.60;99.90;;;;;;5054314;28;20571;-61
2022/04/12 02:50:07;;;;;;;5.38;4.35;;;8.60;99.90;;;;;;5053773;28;20262;-61
2022/04/12 02:52:36;;;;;;;4.40;4.07;;;8.60;99.90;;;;;;5053832;28;20219;-60
2022/04/12 02:55:05;;;;;;;5.43;4.85;;;8.70;99.90;;;;;;5053726;28;20318;-60
2022/04/12 02:57:33;;;;;;;4.72;4.20;;;8.60;99.90;;;;;;5054185;28;20219;-61
2022/04/12 03:00:01;;;;;;;6.30;4.85;;;8.50;99.90;;;;;;5053797;28;20224;-61
2022/04/12 03:02:29;;;;;;;4.30;3.90;;;8.50;99.90;;;;;;5053446;28;20192;-61
2022/04/12 03:04:57;;;;;;;5.25;4.75;;;8.60;99.90;;;;;;5053887;28;20243;-60
2022/04/12 03:07:24;;;;;;;7.57;5.20;;;8.60;99.90;;;;;;5053834;28;20204;-61
2022/04/12 03:09:54;;;;;;;7.85;4.75;;;8.70;99.90;;;;;;5053703;28;20247;-60
2022/04/12 03:12:21;;;;;;;5.25;4.75;;;8.70;99.90;;;;;;5053159;28;20234;-61
2022/04/12 03:14:49;;;;;;;4.68;4.28;;;8.60;99.90;;;;;;5053768;28;20208;-61
2022/04/12 03:17:17;;;;;;;6.53;4.70;;;8.60;99.90;;;;;;5053767;28;20929;-61
2022/04/12 03:19:45;;;;;;;5.30;4.57;;;8.50;99.90;;;;;;5053981;28;20246;-61
2022/04/12 03:22:13;;;;;;;6.00;4.85;;;8.50;99.90;;;;;;5053171;28;20188;-61
2022/04/12 03:24:41;;;;;;;5.95;5.35;;;8.50;99.90;;;;;;5053483;28;20228;-61
2022/04/12 03:27:10;;;;;;;5.70;5.18;;;8.40;99.90;;;;;;5053469;28;20200;-60
2022/04/12 03:29:38;;;;;;;9.85;5.53;;;8.40;99.90;;;;;;5053464;28;20227;-61
2022/04/12 03:32:06;;;;;;;6.35;4.93;;;8.30;99.90;;;;;;5052597;28;20246;-61
2022/04/12 03:34:36;;;;;;;4.97;4.57;;;8.30;99.90;;;;;;5053412;28;20716;-60
2022/04/12 03:37:04;;;;;;;10.43;5.38;;;8.20;99.90;;;;;;5053353;28;20595;-61
2022/04/12 03:39:32;;;;;;;5.90;5.28;;;8.20;99.90;;;;;;5052989;28;20239;-61
2022/04/12 03:42:00;;;;;;;5.28;4.78;;;8.20;99.90;;;;;;5052503;28;20754;-60
2022/04/12 03:44:29;;;;;;;9.02;5.53;;;8.20;99.90;;;;;;5053132;28;20218;-61
2022/04/12 03:46:57;;;;;;;6.70;4.88;;;8.20;99.90;;;;;;5053242;28;20200;-61
2022/04/12 03:49:25;;;;;;;6.28;5.70;;;8.20;99.90;;;;;;5053049;28;20238;-61
2022/04/12 03:51:52;;;;;;;5.32;4.82;;;8.20;99.90;;;;;;5053283;28;20250;-60
2022/04/12 03:54:28;;;;;;;4.82;4.47;;;8.20;99.90;;;;;;5057240;22;20638;31
2022/04/12 03:56:56;;;;;;;5.25;4.70;;;8.20;99.90;;;;;;4972308;28;20246;-58
2022/04/12 03:59:24;;;;;;;5.47;4.95;;;8.10;99.90;;;;;;4968973;28;20245;-58
2022/04/12 04:01:54;;;;;;;9.35;5.40;;;8.10;99.90;;;;;;4974197;28;20282;-60
2022/04/12 04:04:22;;;;;;;6.40;5.57;;;8.10;99.90;;;;;;4974468;28;20202;-59
2022/04/12 04:06:50;;;;;;;7.10;5.28;;;8.00;99.90;;;;;;4993566;28;20198;-60
2022/04/12 04:09:18;;;;;;;5.60;5.00;;;8.10;99.90;;;;;;4993161;28;20515;-59
2022/04/12 04:11:45;;;;;;;7.65;6.00;;;8.10;99.90;;;;;;4993303;28;20632;-59
2022/04/12 04:14:15;;;;;;;6.03;5.43;;;8.10;99.90;;;;;;4992460;28;20690;-59
2022/04/12 04:16:44;;;;;;;5.82;5.30;;;8.10;99.90;;;;;;4993412;28;20241;-60
2022/04/12 04:19:13;;;;;;;10.07;5.30;;;8.10;99.90;;;;;;4993155;28;20189;-59
2022/04/12 04:21:41;;;;;;;5.90;5.40;;;8.10;99.90;;;;;;5005588;28;20206;-59
2022/04/12 04:24:09;;;;;;;5.85;5.25;;;8.10;99.90;;;;;;5012364;28;20647;-60
2022/04/12 04:26:36;;;;;;;8.45;4.88;;;8.20;99.90;;;;;;5012751;28;20329;-60
2022/04/12 04:29:05;;;;;;;6.88;5.35;;;8.10;99.90;;;;;;5010953;28;20289;-59
2022/04/12 04:31:33;;;;;;;8.73;5.82;;;8.10;99.90;;;;;;4992816;28;20217;-59
2022/04/12 04:34:01;;;;;;;11.02;5.75;;;8.10;99.90;;;;;;4992265;28;20828;-60
2022/04/12 04:36:30;;;;;;;5.18;4.70;;;8.10;99.90;;;;;;4992986;28;20217;-59
2022/04/12 04:38:58;;;;;;;6.30;5.70;;;8.20;99.90;;;;;;4992679;28;20691;-60
2022/04/12 04:41:27;;;;;;;5.80;5.25;;;8.20;99.90;;;;;;4992911;28;20261;-60
2022/04/12 04:43:55;;;;;;;7.65;5.93;;;8.20;99.90;;;;;;4992219;28;20281;-59
2022/04/12 04:46:23;;;;;;;5.65;5.15;;;8.20;99.90;;;;;;4992715;28;20245;-60
2022/04/12 04:48:51;;;;;;;6.53;5.45;;;8.10;99.90;;;;;;4992211;28;20667;-60
2022/04/12 04:51:19;;;;;;;7.60;5.65;;;8.20;99.90;;;;;;4992773;28;20309;-60
2022/04/12 04:53:55;;;;;;;5.78;5.28;;;8.20;99.90;;;;;;4992051;28;20245;-60
2022/04/12 04:56:24;;;;;;;6.60;5.30;;;8.10;99.90;;;;;;4992522;28;20261;-60
2022/04/12 04:58:52;;;;;;;5.80;5.10;;;8.20;99.90;;;;;;5012123;28;20205;-60
2022/04/12 05:01:20;;;;;;;8.07;6.32;;;8.20;99.90;;;;;;5011868;28;20221;-60
2022/04/12 05:03:50;;;;;;;6.70;6.00;;;8.20;99.90;;;;;;4999874;28;20687;-59
2022/04/12 05:06:18;;;;;;;8.88;5.45;;;8.20;99.90;;;;;;4996009;28;20245;-60
2022/04/12 05:08:47;;;;;;;8.27;6.15;;;8.20;99.90;;;;;;5005418;28;20193;-60
2022/04/12 05:11:15;;;;;;;7.18;6.30;;;8.30;99.90;;;;;;4993625;28;20766;-59
2022/04/12 05:13:43;;;;;;;7.13;6.53;;;8.20;99.90;;;;;;4991372;28;20193;-60
2022/04/12 05:16:11;;;;;;;6.65;5.95;;;8.20;99.90;;;;;;4992224;28;20226;-59
2022/04/12 05:18:39;;;;;;;7.38;5.85;;;8.30;99.90;;;;;;4992402;28;20213;-60
2022/04/12 05:21:07;;;;;;;6.60;5.60;;;8.30;99.90;;;;;;4991354;28;20753;-59
2022/04/12 05:23:35;;;;;;;6.70;6.00;;;8.30;99.90;;;;;;4992718;28;20249;-60
2022/04/12 05:26:04;;;;;;;8.07;6.15;;;8.20;99.90;;;;;;4987237;28;20657;-60
2022/04/12 05:28:32;;;;;;;8.52;6.35;;;8.30;99.90;;;;;;4990967;28;20206;-60
2022/04/12 05:31:00;;;;;;;6.63;5.75;;;8.30;99.90;;;;;;4990578;28;20198;-60
2022/04/12 05:33:28;;;;;;;8.40;5.85;;;8.20;99.90;;;;;;4990105;28;20197;-60
2022/04/12 05:35:56;;;;;;;7.07;6.05;;;8.20;99.90;;;;;;4990749;28;20635;-60
2022/04/12 05:38:23;;;;;;;6.40;5.70;;;8.30;99.90;;;;;;4987455;28;20603;-59
2022/04/12 05:40:51;;;;;;;7.70;7.00;;;8.30;99.90;;;;;;4990122;28;20682;-59
2022/04/12 05:43:20;;;;;;;5.90;5.30;;;8.30;99.90;;;;;;4989938;28;20290;-58
2022/04/12 05:45:48;;;;;;;7.93;6.68;;;8.40;99.90;;;;;;4990843;28;20213;-59
2022/04/12 05:48:16;;;;;;;7.10;6.40;;;8.40;99.90;;;;;;4991839;28;20224;-60
2022/04/12 05:50:44;;;;;;;8.57;6.03;;;8.50;99.90;;;;;;4990903;28;20632;-61
2022/04/12 05:53:12;;;;;;;7.22;6.35;;;8.50;99.90;;;;;;4989364;28;20217;-60
2022/04/12 05:55:40;;;;;;;6.97;6.10;;;8.60;99.90;;;;;;4991238;28;20265;-60
2022/04/12 05:58:07;;;;;;;7.43;6.05;;;8.70;99.90;;;;;;4991361;28;20710;-60
2022/04/12 06:00:37;;;;;;;8.57;6.60;;;8.70;99.90;;;;;;4991696;28;20224;-60
2022/04/12 06:03:05;;;;;;;7.70;6.20;;;8.80;99.90;;;;;;4990994;28;20198;-59
2022/04/12 06:05:33;;;;;;;6.75;5.57;;;9.10;99.90;;;;;;4990679;28;20218;-59
2022/04/12 06:08:03;;;;;;;9.73;6.07;;;9.20;99.90;;;;;;4991501;28;20664;-60
2022/04/12 06:10:31;;;;;;;6.18;5.57;;;9.40;99.90;;;;;;4989415;28;20202;-60
2022/04/12 06:12:59;;;;;;;5.85;5.25;;;9.40;99.90;;;;;;4990696;28;20228;-59
2022/04/12 06:15:28;;;;;;;6.47;5.82;;;9.60;99.90;;;;;;4991329;28;20268;-60
2022/04/12 06:17:57;;;;;;;10.02;6.88;;;9.80;99.90;;;;;;4991553;28;20663;-60
2022/04/12 06:20:25;;;;;;;8.07;6.70;;;9.90;99.90;;;;;;4992761;28;20202;-60
2022/04/12 06:22:54;;;;;;;7.47;6.78;;;10.10;99.90;;;;;;4994804;28;20202;-58
2022/04/12 06:25:22;;;;;;;7.10;6.40;;;10.20;99.90;;;;;;4993827;28;20222;-60
2022/04/12 06:27:51;;;;;;;7.68;6.30;;;10.30;99.90;;;;;;4988259;28;20252;-60
2022/04/12 06:30:22;;;;;;;6.90;6.20;;;10.20;99.90;;;;;;4994246;28;20205;-59
2022/04/12 06:32:51;;;;;;;7.63;6.65;;;10.10;99.90;;;;;;4994126;28;20218;-60
2022/04/12 06:35:20;;;;;;;8.23;6.10;;;10.10;99.90;;;;;;4993099;28;20258;-62
2022/04/12 06:37:52;;;;;;;6.95;6.25;;;10.00;99.90;;;;;;4994617;28;20237;-62
2022/04/12 06:40:21;;;;;;;7.63;6.40;;;9.90;99.90;;;;;;4994997;28;20208;-60
2022/04/12 06:42:49;;;;;;;8.73;6.82;;;9.90;99.90;;;;;;4994481;28;20273;-60
2022/04/12 06:45:17;;;;;;;6.65;6.05;;;9.90;99.90;;;;;;4994473;28;20222;-60
2022/04/12 06:47:53;;;;;;;8.43;6.70;;;10.10;99.90;;;;;;4995040;28;20229;-60
2022/04/12 06:50:22;;;;;;;6.47;5.75;;;10.20;99.90;;;;;;4995233;28;20701;-60
2022/04/12 06:52:51;;;;;;;7.80;6.95;;;10.30;99.90;;;;;;4993147;28;20691;-59
2022/04/12 06:55:18;;;;;;;8.85;5.85;;;10.40;99.90;;;;;;4994124;28;20261;-60
2022/04/12 06:57:46;;;;;;;6.97;6.28;;;10.50;99.90;;;;;;4994789;28;20194;-60
2022/04/12 07:00:16;;;;;;;8.45;7.15;;;10.60;99.90;;;;;;4994459;28;20293;-59
2022/04/12 07:02:44;;;;;;;6.95;6.25;;;10.70;99.90;;;;;;4994260;28;20597;-60
2022/04/12 07:05:13;;;;;;;8.35;7.15;;;10.90;99.90;;;;;;4994460;28;20214;-60
2022/04/12 07:07:43;;;;;;;6.65;6.00;;;11.00;99.90;;;;;;4995056;28;20615;-60
2022/04/12 07:10:13;;;;;;;6.60;5.85;;;11.00;99.90;;;;;;4994558;28;20281;-60
2022/04/12 07:12:42;;;;;;;9.07;6.15;;;11.20;99.90;;;;;;4994022;28;20221;-60
2022/04/12 07:15:11;;;;;;;8.18;6.50;;;11.20;99.90;;;;;;4994388;28;20253;-60
2022/04/12 07:17:39;;;;;;;8.23;6.78;;;11.30;99.90;;;;;;4994268;28;20256;-60
2022/04/12 07:20:07;;;;;;;9.35;5.90;;;11.40;99.90;;;;;;4994343;28;20249;-59
2022/04/12 07:22:35;;;;;;;9.48;7.05;;;11.50;99.90;;;;;;4993816;28;20199;-60
2022/04/12 07:25:05;;;;;;;7.65;6.75;;;11.60;99.90;;;;;;4994183;28;20569;-60
2022/04/12 07:27:36;;;;;;;7.65;6.25;;;11.60;99.90;;;;;;4994412;28;20681;-60
2022/04/12 07:30:05;;;;;;;7.97;6.18;;;11.80;99.90;;;;;;4993967;28;20676;-61
2022/04/12 07:32:33;;;;;;;9.85;6.40;;;11.90;99.90;;;;;;4992953;28;20276;-60
2022/04/12 07:35:01;;;;;;;6.45;5.80;;;12.00;99.90;;;;;;4994085;28;20277;-60
2022/04/12 07:37:29;;;;;;;9.02;6.28;;;12.30;99.90;;;;;;4994168;28;20241;-60
2022/04/12 07:39:57;;;;;;;7.05;6.43;;;12.30;99.90;;;;;;4993930;28;20673;-59
2022/04/12 07:42:26;;;;;;;7.22;6.45;;;12.30;99.90;;;;;;4993294;28;20278;-60
2022/04/12 07:44:54;;;;;;;8.75;6.78;;;12.30;99.90;;;;;;4993796;28;20214;-60
2022/04/12 07:47:22;;;;;;;9.07;6.10;;;12.50;99.90;;;;;;4993959;28;20730;-60
2022/04/12 07:49:50;;;;;;;7.30;6.60;;;12.60;99.90;;;;;;4993669;28;20249;-61
2022/04/12 07:52:17;;;;;;;7.47;6.50;;;12.70;99.90;;;;;;4992346;28;20202;-60
2022/04/12 07:54:45;;;;;;;7.95;6.78;;;12.90;99.90;;;;;;4993325;28;20706;-60
2022/04/12 07:57:13;;;;;;;7.90;6.93;;;13.00;99.90;;;;;;4993996;28;20228;-60
2022/04/12 07:59:42;;;;;;;7.65;6.85;;;13.20;99.90;;;;;;4993913;28;20195;-60
2022/04/12 08:02:10;;;;;;;7.75;6.97;;;13.30;99.90;;;;;;4992390;28;20225;-61
2022/04/12 08:04:41;;;;;;;8.77;7.45;;;13.30;99.90;;;;;;4993390;28;20214;-60
2022/04/12 08:07:09;;;;;;;8.20;6.72;;;13.40;99.90;;;;;;4993580;28;20272;-60
2022/04/12 08:09:37;;;;;;;9.32;7.05;;;13.30;99.90;;;;;;4993522;28;20261;-60
2022/04/12 08:12:05;;;;;;;7.72;6.65;;;13.50;99.90;;;;;;4992587;28;20245;-61
2022/04/12 08:14:33;;;;;;;9.75;7.00;;;13.70;99.90;;;;;;4993132;28;20309;-61
2022/04/12 08:17:03;;;;;;;10.18;7.55;;;13.90;99.90;;;;;;4993380;28;20543;-61
2022/04/12 08:19:31;;;;;;;10.20;6.60;;;13.90;99.90;;;;;;4993488;28;20194;-60
2022/04/12 08:22:00;;;;;;;10.18;6.80;;;14.00;99.90;;;;;;4992311;28;20262;-60
2022/04/12 08:24:29;;;;;;;7.95;7.15;;;14.10;99.50;;;;;;4992997;28;20221;-60
2022/04/12 08:26:57;;;;;;;7.65;6.95;;;14.20;99.40;;;;;;4993181;28;20202;-60
2022/04/12 08:29:24;;;;;;;8.55;7.40;;;14.10;99.20;;;;;;4993154;28;20194;-60
2022/04/12 08:31:53;;;;;;;7.82;7.03;;;14.20;99.70;;;;;;4992757;28;20229;-60
2022/04/12 08:34:22;;;;;;;9.18;6.97;;;14.40;99.90;;;;;;4992425;28;20762;-61
2022/04/12 08:36:50;;;;;;;7.50;6.53;;;14.70;99.50;;;;;;4993251;28;20198;-61
2022/04/12 08:39:18;;;;;;;9.80;7.43;;;14.80;98.90;;;;;;4993143;28;20669;-61
2022/04/12 08:41:46;;;;;;;7.57;6.82;;;14.90;98.20;;;;;;4992723;28;20611;-60
2022/04/12 08:44:18;;;;;;;7.25;6.50;;;15.00;98.70;;;;;;4991624;28;20250;-61
2022/04/12 08:46:47;;;;;;;8.75;6.80;;;15.00;98.40;;;;;;4992774;28;20733;-60
2022/04/12 08:49:16;;;;;;;8.57;7.30;;;15.00;98.80;;;;;;4992579;28;20718;-60
2022/04/12 08:51:47;;;;;;;9.30;7.10;;;15.20;98.30;;;;;;4991210;28;20193;-61
2022/04/12 08:54:16;;;;;;;7.75;7.05;;;15.30;97.80;;;;;;4991999;28;20214;-61
2022/04/12 08:56:45;;;;;;;7.60;6.60;;;15.30;98.30;;;;;;4992406;28;20442;-60
2022/04/12 08:59:19;;;;;;;10.57;7.63;;;15.40;97.90;;;;;;4992624;28;20199;-60
2022/04/12 09:01:47;;;;;;;8.05;7.25;;;15.60;98.10;;;;;;4992349;28;20200;-61
2022/04/12 09:04:15;;;;;;;7.20;6.45;;;15.90;97.90;;;;;;4991809;28;20221;-61
2022/04/12 09:06:52;;;;;;;8.77;7.47;;;16.20;97.40;;;;;;4992559;28;20197;-60
2022/04/12 09:09:21;;;;;;;8.23;7.22;;;16.50;96.90;;;;;;4974999;28;20202;-61
2022/04/12 09:11:57;;;;;;;7.53;6.63;;;16.60;96.50;;;;;;4992587;28;20280;-60
2022/04/12 09:14:26;;;;;;;7.05;6.20;;;16.70;95.60;;;;;;4992155;28;20228;-61
2022/04/12 09:16:53;;;;;;;7.75;6.55;;;16.70;94.90;;;;;;4991896;28;20692;-61
2022/04/12 09:19:43;;;;;;;9.95;6.50;;;16.80;94.90;;;;;;4992132;28;20202;-61
2022/04/12 09:22:15;;;;;;;8.95;6.30;;;16.70;95.60;;;;;;4991591;28;20198;-61
2022/04/12 09:24:48;;;;;;;8.05;7.20;;;17.00;94.70;;;;;;4992102;28;20210;-61
2022/04/12 09:27:18;;;;;;;6.63;6.03;;;17.20;94.10;;;;;;4991874;28;20249;-61
2022/04/12 09:29:49;;;;;;;8.40;6.70;;;17.30;94.60;;;;;;4992292;28;20193;-61
2022/04/12 09:32:20;;;;;;;6.72;6.07;;;17.30;94.10;;;;;;4991246;28;20194;-61
2022/04/12 09:34:48;;;;;;;8.25;6.22;;;17.40;93.70;;;;;;4991237;28;20272;-61
2022/04/12 09:37:25;;;;;;;8.38;5.70;;;17.50;92.90;;;;;;4991994;28;20241;-60
2022/04/12 09:39:55;;;;;;;8.80;5.95;;;17.50;93.00;;;;;;4992009;28;20679;-61
2022/04/12 09:42:46;;;;;;;7.55;6.72;;;17.60;93.70;;;;;;4991815;28;20280;-61
2022/04/12 09:45:15;;;;;;;6.82;5.90;;;17.80;92.20;;;;;;4987573;28;20230;-61
2022/04/12 09:47:44;;;;;;;10.30;6.80;;;17.90;93.10;;;;;;4991911;28;20602;-61
2022/04/12 09:50:33;;;;;;;6.75;6.03;;;18.10;92.10;;;;;;4990168;28;20201;-60
2022/04/12 09:53:09;;;;;;;6.93;6.25;;;18.40;91.90;;;;;;4991044;28;20288;-61
2022/04/12 09:55:40;;;;;;;7.38;5.82;;;18.70;91.40;;;;;;5057656;23;20240;-61
2022/04/12 09:58:13;;;;;;;7.40;5.15;;;18.70;91.60;;;;;;5036066;28;20200;-62
2022/04/12 10:00:42;;;;;;;6.93;5.93;;;19.10;91.40;;;;;;5050902;28;20246;-62
2022/04/12 10:03:12;;;;;;;8.27;6.38;;;19.10;91.20;;;;;;5050038;28;20255;-61
2022/04/12 10:05:40;;;;;;;8.52;6.55;;;19.50;91.50;;;;;;5059127;28;20233;-62
2022/04/12 10:08:11;;;;;;;10.80;6.15;;;19.70;90.60;;;;;;5070705;28;20199;-62
2022/04/12 10:10:42;;;;;;;10.27;6.90;;;19.90;90.50;;;;;;5070933;28;20577;-61
2022/04/12 10:13:12;;;;;;;7.72;6.40;;;20.00;90.00;;;;;;5070215;28;20613;-62
2022/04/12 10:15:40;;;;;;;7.70;6.30;;;20.20;90.10;;;;;;5070071;28;20629;-61
2022/04/12 10:18:08;;;;;;;9.98;6.70;;;20.70;89.60;;;;;;5070976;28;20234;-61
2022/04/12 10:20:37;;;;;;;7.50;5.80;;;20.70;88.60;;;;;;5070912;28;20668;-61
2022/04/12 10:23:11;;;;;;;9.52;6.35;;;20.80;87.00;;;;;;5070292;28;20219;-61
2022/04/12 10:25:39;;;;;;;6.75;5.95;;;20.90;85.90;;;;;;5070516;28;20580;-62
2022/04/12 10:28:08;;;;;;;6.50;5.85;;;21.30;84.90;;;;;;5070480;28;20290;-61
2022/04/12 10:30:36;;;;;;;6.93;6.10;;;21.20;85.00;;;;;;5070920;28;20245;-62
2022/04/12 10:33:05;;;;;;;7.35;6.40;;;21.10;86.30;;;;;;5069956;28;20240;-62
2022/04/12 10:35:58;;;;;;;6.82;5.18;;;21.30;85.60;;;;;;5070490;28;20247;-62
2022/04/12 10:38:38;;;;;;;7.72;5.38;;;21.50;84.90;;;;;;5070693;28;20195;-61
2022/04/12 10:41:14;;;;;;;8.73;5.72;;;21.60;84.70;;;;;;5062278;28;20183;-62
2022/04/12 10:43:42;;;;;;;8.18;5.60;;;21.40;84.50;;;;;;5070413;28;20709;-62
2022/04/12 10:46:12;;;;;;;9.52;5.75;;;21.60;83.00;;;;;;5070081;28;20261;-62
2022/04/12 10:48:40;;;;;;;6.47;4.80;;;21.70;83.40;;;;;;5070700;28;20310;-62
2022/04/12 10:51:08;;;;;;;8.50;5.60;;;21.70;82.60;;;;;;5068760;28;20665;-62
2022/04/12 10:54:05;;;;;;;6.57;5.68;;;21.60;82.80;;;;;;5070035;28;20192;-62
2022/04/12 10:56:33;;;;;;;11.55;5.15;;;21.90;83.70;;;;;;5003776;28;20235;-62
2022/04/12 10:59:02;;;;;;;4.72;4.20;;;22.00;82.90;;;;;;5050261;28;20666;-62
2022/04/12 11:01:32;;;;;;;4.90;4.40;;;22.30;83.40;;;;;;5050386;28;20262;-62
2022/04/12 11:04:04;;;;;;;4.72;4.25;;;22.70;79.80;;;;;;5049852;28;20200;-62
2022/04/12 11:06:34;;;;;;;4.03;3.65;;;22.90;77.90;;;;;;5051067;28;20220;-62
2022/04/12 11:09:11;;;;;;;5.72;4.10;;;23.10;79.50;;;;;;5053942;28;20572;-62
2022/04/12 11:11:41;;;;;;;8.05;4.60;;;23.60;76.80;;;;;;5053946;28;20239;-62
2022/04/12 11:14:22;;;;;;;7.25;5.00;;;23.50;76.80;;;;;;5053379;28;20250;-62
2022/04/12 11:16:52;;;;;;;5.68;5.07;;;23.60;77.80;;;;;;5053437;28;20231;-61
2022/04/12 11:19:22;;;;;;;5.45;4.13;;;23.90;77.50;;;;;;5053752;28;20192;-61
2022/04/12 11:22:00;;;;;;;5.35;4.00;;;24.10;75.90;;;;;;5053409;28;20200;-61
2022/04/12 11:24:29;;;;;;;4.85;4.00;;;24.10;75.10;;;;;;5053470;28;20231;-62
2022/04/12 11:27:05;;;;;;;6.22;3.90;;;24.10;75.00;;;;;;5053241;28;20219;-63
2022/04/12 11:29:33;;;;;;;5.25;3.80;;;24.20;74.00;;;;;;5053605;28;20191;-63
2022/04/12 11:32:02;;;;;;;3.45;2.95;;;24.10;73.80;;;;;;5052925;28;20736;-63
2022/04/12 11:34:31;;;;;;;3.15;2.85;;;24.40;72.80;;;;;;5053149;28;20208;-63
2022/04/12 11:37:01;;;;;;;2.50;2.30;;;24.90;72.00;;;;;;5053135;28;20223;-63
2022/04/12 11:39:32;;;;;;;3.25;2.13;;;25.30;71.10;;;;;;5053786;28;20223;-63
2022/04/12 11:42:02;;;;;;;2.08;1.88;;;25.50;68.90;;;;;;5052918;28;20200;-63
2022/04/12 11:44:30;;;;;;;2.22;2.00;;;25.60;70.20;;;;;;5035517;28;20196;-63
2022/04/12 11:47:01;;;;;;;3.30;2.40;;;25.50;68.20;;;;;;5052865;28;20222;-63
2022/04/12 11:49:31;;;;;;;3.10;2.05;;;25.30;67.50;;;;;;5053478;28;20196;-63
2022/04/12 11:52:00;;;;;;;1.80;1.70;;;25.20;68.40;;;;;;5051279;28;20192;-63
2022/04/12 11:54:32;;;;;;;2.47;1.95;;;25.20;68.50;;;;;;5035101;28;20291;-64
2022/04/12 11:57:02;;;;;;;2.70;2.38;;;25.30;67.70;;;;;;5070511;28;20254;-63
2022/04/12 11:59:31;;;;;;;1.90;1.80;;;25.30;66.60;;;;;;5073320;28;20195;-63
2022/04/12 12:02:01;;;;;;;2.50;1.90;;;25.30;68.70;;;;;;5072689;28;20228;-61
2022/04/12 12:04:31;;;;;;;2.22;1.45;;;25.50;67.60;;;;;;5073091;28;20194;-62
2022/04/12 12:07:02;;;;;;;2.70;2.00;;;25.60;65.80;;;;;;5072383;28;20322;-62
2022/04/12 12:09:32;;;;;;;1.80;1.70;;;25.60;65.70;;;;;;5072820;28;20203;-62
2022/04/12 12:12:06;;;;;;;1.80;1.70;;;25.60;66.20;;;;;;5072509;28;20637;-61
2022/04/12 12:14:35;;;;;;;2.35;2.15;;;25.30;66.80;;;;;;5072769;28;20305;-62
2022/04/12 12:17:08;;;;;;;1.75;1.65;;;25.30;66.60;;;;;;5072162;28;20609;-63
2022/04/12 12:19:38;;;;;;;1.80;1.70;;;25.50;66.30;;;;;;5071908;28;20690;-63
2022/04/12 12:22:08;;;;;;;2.08;1.48;;;25.70;67.20;;;;;;5071974;28;20196;-63
2022/04/12 12:24:49;;;;;;;2.55;1.20;;;25.80;66.20;;;;;;5072549;28;20622;-63
2022/04/12 12:27:27;;;;;;;1.63;1.30;;;25.90;65.80;;;;;;5072617;28;20227;-63
2022/04/12 12:30:04;;;;;;;1.17;1.05;;;25.70;66.20;;;;;;5072389;28;20241;-63
2022/04/12 12:32:33;;;;;;;1.60;1.50;;;25.60;66.20;;;;;;5071734;28;20195;-62
2022/04/12 12:35:07;;;;;;;4.25;1.33;;;25.40;65.20;;;;;;5071945;28;20314;-63
2022/04/12 12:37:36;;;;;;;1.30;1.20;;;25.40;66.70;;;;;;5072762;28;20234;-63
2022/04/12 12:40:18;;;;;;;1.40;1.30;;;25.40;65.70;;;;;;5072283;28;20187;-63
2022/04/12 12:42:48;;;;;;;1.30;1.15;;;25.10;65.50;;;;;;5071345;28;20203;-63
2022/04/12 12:45:17;;;;;;;2.30;1.48;;;25.30;65.90;;;;;;5071872;28;20298;-63
2022/04/12 12:47:47;;;;;;;1.60;1.50;;;25.30;66.10;;;;;;5072304;28;20200;-63
2022/04/12 12:50:17;;;;;;;1.83;1.20;;;25.50;66.40;;;;;;5072201;28;20285;-63
2022/04/12 12:52:47;;;;;;;2.17;1.33;;;25.90;67.60;;;;;;5069323;28;20680;-63
2022/04/12 12:55:19;;;;;;;2.17;1.30;;;25.90;65.70;;;;;;5071727;28;20234;-63
2022/04/12 12:57:48;;;;;;;1.60;1.15;;;26.00;66.20;;;;;;5072047;28;20191;-63
2022/04/12 13:00:18;;;;;;;1.40;1.23;;;26.30;64.90;;;;;;5072068;28;20234;-63
2022/04/12 13:02:46;;;;;;;2.92;1.58;;;26.80;65.90;;;;;;5070853;28;20641;-63